BAW642 EGLL-LGKR
Flight info
| Callsign | BAW642 |
|---|---|
| Flight time | 3h 0m |
| Altitude | 37000 |
| Route | DET1J DET L6 DVR L9 KONAN UL607 KOK DCT SISGA DCT KOMOB DCT KRH DCT KUNOD DCT GEDSO DCT VEKEN DCT ALIVO DCT UNIPA DCT VAKSU DCT RODON DCT LIMJA N732 PITAS PITAS2P |
| Aircraft | A21N/M-SDE3FGIJ1LRWXYZ/SB1G1 |
Departure
| Time | 2026-05-07 08:21 |
|---|---|
| Airport | London Heathrow Airport (EGLL) |
Arrival
| Time | 2026-05-07 11:22 |
|---|---|
| Airport | Corfu Ioannis Kapodistrias International Airport (LGKR) |
| Time | Latitude | Longitude | Altitude | Speed | Heading |
|---|---|---|---|---|---|
| 2026-05-07 08:04 | 51.47188 | -0.48592 | 91 ft | 0 kts | 269° |
| 2026-05-07 08:08 | 51.47188 | -0.48582 | 91 ft | 4 kts | 269° |
| 2026-05-07 08:08 | 51.47188 | -0.48539 | 91 ft | 4 kts | 269° |
| 2026-05-07 08:08 | 51.47189 | -0.48505 | 93 ft | 4 kts | 255° |
| 2026-05-07 08:09 | 51.47200 | -0.48476 | 91 ft | 4 kts | 198° |
| 2026-05-07 08:09 | 51.47224 | -0.48473 | 91 ft | 4 kts | 179° |
| 2026-05-07 08:09 | 51.47232 | -0.48473 | 91 ft | 0 kts | 179° |
| 2026-05-07 08:13 | 51.47222 | -0.48473 | 91 ft | 3 kts | 179° |
| 2026-05-07 08:13 | 51.47195 | -0.48473 | 91 ft | 5 kts | 180° |
| 2026-05-07 08:14 | 51.47150 | -0.48472 | 94 ft | 8 kts | 180° |
| 2026-05-07 08:14 | 51.47090 | -0.48472 | 95 ft | 10 kts | 180° |
| 2026-05-07 08:14 | 51.47017 | -0.48471 | 94 ft | 11 kts | 180° |
| 2026-05-07 08:14 | 51.46934 | -0.48470 | 91 ft | 13 kts | 180° |
| 2026-05-07 08:15 | 51.46838 | -0.48469 | 91 ft | 15 kts | 180° |
| 2026-05-07 08:15 | 51.46732 | -0.48468 | 92 ft | 16 kts | 180° |
| 2026-05-07 08:15 | 51.46654 | -0.48510 | 93 ft | 12 kts | 252° |
| 2026-05-07 08:15 | 51.46651 | -0.48647 | 92 ft | 13 kts | 269° |
| 2026-05-07 08:16 | 51.46607 | -0.48764 | 95 ft | 15 kts | 197° |
| 2026-05-07 08:16 | 51.46504 | -0.48768 | 92 ft | 16 kts | 141° |
| 2026-05-07 08:16 | 51.46478 | -0.48670 | 92 ft | 0 kts | 88° |
| 2026-05-07 08:20 | 51.46482 | -0.48420 | 92 ft | 56 kts | 89° |
| 2026-05-07 08:20 | 51.46482 | -0.47429 | 91 ft | 119 kts | 89° |
| 2026-05-07 08:20 | 51.46488 | -0.45814 | 92 ft | 168 kts | 90° |
| 2026-05-07 08:21 | 51.46504 | -0.43892 | 567 ft | 172 kts | 90° |
| 2026-05-07 08:21 | 51.46531 | -0.41959 | 1159 ft | 175 kts | 92° |
| 2026-05-07 08:21 | 51.46225 | -0.40013 | 1607 ft | 189 kts | 118° |
| 2026-05-07 08:21 | 51.45292 | -0.38426 | 2093 ft | 205 kts | 144° |
| 2026-05-07 08:22 | 51.44159 | -0.36924 | 2548 ft | 228 kts | 126° |
| 2026-05-07 08:22 | 51.43507 | -0.34485 | 3005 ft | 250 kts | 103° |
| 2026-05-07 08:22 | 51.43147 | -0.31707 | 3790 ft | 258 kts | 101° |
| 2026-05-07 08:22 | 51.42790 | -0.28865 | 4657 ft | 262 kts | 101° |
| 2026-05-07 08:23 | 51.42417 | -0.25986 | 5528 ft | 265 kts | 101° |
| 2026-05-07 08:23 | 51.42032 | -0.23076 | 6363 ft | 269 kts | 101° |
| 2026-05-07 08:23 | 51.41636 | -0.20125 | 7179 ft | 273 kts | 102° |
| 2026-05-07 08:23 | 51.41228 | -0.17123 | 8003 ft | 277 kts | 102° |
| 2026-05-07 08:24 | 51.40811 | -0.14084 | 8822 ft | 281 kts | 102° |
| 2026-05-07 08:24 | 51.40386 | -0.11002 | 9663 ft | 285 kts | 102° |
| 2026-05-07 08:24 | 51.39953 | -0.07864 | 10396 ft | 294 kts | 102° |
| 2026-05-07 08:24 | 51.39496 | -0.04555 | 10762 ft | 315 kts | 102° |
| 2026-05-07 08:25 | 51.39003 | -0.01004 | 11075 ft | 337 kts | 102° |
| 2026-05-07 08:25 | 51.38480 | 0.02754 | 11515 ft | 352 kts | 102° |
| 2026-05-07 08:25 | 51.37949 | 0.06555 | 12202 ft | 358 kts | 102° |
| 2026-05-07 08:25 | 51.37400 | 0.10476 | 12952 ft | 362 kts | 102° |
| 2026-05-07 08:26 | 51.36286 | 0.18407 | 14377 ft | 369 kts | 103° |
| 2026-05-07 08:26 | 51.35713 | 0.22437 | 15061 ft | 373 kts | 103° |
| 2026-05-07 08:26 | 51.35140 | 0.26497 | 15713 ft | 377 kts | 103° |
| 2026-05-07 08:27 | 51.34561 | 0.30609 | 16352 ft | 380 kts | 103° |
| 2026-05-07 08:27 | 51.33974 | 0.34754 | 16958 ft | 383 kts | 103° |
| 2026-05-07 08:27 | 51.33381 | 0.38933 | 17555 ft | 387 kts | 103° |
| 2026-05-07 08:27 | 51.32780 | 0.43152 | 18129 ft | 390 kts | 103° |
| 2026-05-07 08:28 | 51.32176 | 0.47381 | 18679 ft | 393 kts | 103° |
| 2026-05-07 08:28 | 51.31561 | 0.51663 | 19229 ft | 397 kts | 103° |
| 2026-05-07 08:28 | 51.30945 | 0.55921 | 19749 ft | 400 kts | 103° |
| 2026-05-07 08:28 | 51.30290 | 0.60252 | 20265 ft | 403 kts | 105° |
| 2026-05-07 08:29 | 51.29517 | 0.64569 | 20763 ft | 406 kts | 106° |
| 2026-05-07 08:29 | 51.28725 | 0.68921 | 21259 ft | 409 kts | 106° |
| 2026-05-07 08:29 | 51.27924 | 0.73287 | 21748 ft | 412 kts | 106° |
| 2026-05-07 08:29 | 51.27115 | 0.77694 | 22220 ft | 414 kts | 106° |
| 2026-05-07 08:30 | 51.26300 | 0.82127 | 22686 ft | 417 kts | 106° |
| 2026-05-07 08:30 | 51.25477 | 0.86595 | 23144 ft | 421 kts | 106° |
| 2026-05-07 08:30 | 51.24646 | 0.91088 | 23599 ft | 423 kts | 107° |
| 2026-05-07 08:30 | 51.23807 | 0.95607 | 24049 ft | 426 kts | 107° |
| 2026-05-07 08:31 | 51.22963 | 1.00154 | 24493 ft | 429 kts | 107° |
| 2026-05-07 08:31 | 51.22113 | 1.04730 | 24917 ft | 431 kts | 107° |
| 2026-05-07 08:31 | 51.21250 | 1.09325 | 25324 ft | 434 kts | 107° |
| 2026-05-07 08:31 | 51.20385 | 1.13938 | 25728 ft | 436 kts | 107° |
| 2026-05-07 08:32 | 51.19515 | 1.18586 | 26116 ft | 438 kts | 107° |
| 2026-05-07 08:32 | 51.18642 | 1.23252 | 26493 ft | 441 kts | 107° |
| 2026-05-07 08:32 | 51.17763 | 1.27935 | 26859 ft | 443 kts | 107° |
| 2026-05-07 08:32 | 51.16876 | 1.32656 | 27207 ft | 445 kts | 106° |
| 2026-05-07 08:33 | 51.16204 | 1.37475 | 27542 ft | 447 kts | 97° |
| 2026-05-07 08:33 | 51.15913 | 1.42408 | 27868 ft | 449 kts | 94° |
| 2026-05-07 08:33 | 51.15690 | 1.47372 | 28175 ft | 451 kts | 94° |
| 2026-05-07 08:33 | 51.15471 | 1.52303 | 28490 ft | 453 kts | 94° |
| 2026-05-07 08:34 | 51.15236 | 1.57316 | 28804 ft | 455 kts | 94° |
| 2026-05-07 08:34 | 51.14991 | 1.62341 | 29094 ft | 456 kts | 94° |
| 2026-05-07 08:34 | 51.14742 | 1.67399 | 29401 ft | 458 kts | 94° |
| 2026-05-07 08:34 | 51.14491 | 1.72447 | 29785 ft | 457 kts | 94° |
| 2026-05-07 08:35 | 51.14238 | 1.77481 | 30168 ft | 455 kts | 94° |
| 2026-05-07 08:35 | 51.13984 | 1.82502 | 30520 ft | 455 kts | 94° |
| 2026-05-07 08:35 | 51.13727 | 1.87512 | 30874 ft | 454 kts | 94° |
| 2026-05-07 08:35 | 51.13466 | 1.92530 | 31234 ft | 453 kts | 94° |
| 2026-05-07 08:36 | 51.13206 | 1.97525 | 31567 ft | 453 kts | 94° |
| 2026-05-07 08:36 | 51.12944 | 2.02522 | 31898 ft | 452 kts | 94° |
| 2026-05-07 08:36 | 51.12680 | 2.07505 | 32226 ft | 452 kts | 95° |
| 2026-05-07 08:36 | 51.12412 | 2.12485 | 32540 ft | 451 kts | 95° |
| 2026-05-07 08:37 | 51.12145 | 2.17462 | 32836 ft | 451 kts | 95° |
| 2026-05-07 08:37 | 51.11877 | 2.22430 | 33120 ft | 450 kts | 95° |
| 2026-05-07 08:37 | 51.11607 | 2.27396 | 33390 ft | 450 kts | 95° |
| 2026-05-07 08:37 | 51.11338 | 2.32291 | 33660 ft | 450 kts | 95° |
| 2026-05-07 08:38 | 51.11061 | 2.37250 | 33921 ft | 449 kts | 95° |
| 2026-05-07 08:38 | 51.10784 | 2.42205 | 34167 ft | 449 kts | 95° |
| 2026-05-07 08:38 | 51.10506 | 2.47146 | 34384 ft | 449 kts | 95° |
| 2026-05-07 08:38 | 51.10225 | 2.52099 | 34598 ft | 449 kts | 95° |
| 2026-05-07 08:39 | 51.09943 | 2.57055 | 34799 ft | 449 kts | 95° |
| 2026-05-07 08:39 | 51.09608 | 2.62001 | 34993 ft | 450 kts | 99° |
| 2026-05-07 08:39 | 51.08833 | 2.66817 | 35143 ft | 450 kts | 110° |
| 2026-05-07 08:39 | 51.07521 | 2.71338 | 35315 ft | 450 kts | 117° |
| 2026-05-07 08:40 | 51.06044 | 2.75738 | 35491 ft | 450 kts | 118° |
| 2026-05-07 08:40 | 51.04554 | 2.80113 | 35669 ft | 451 kts | 118° |
| 2026-05-07 08:40 | 51.03070 | 2.84510 | 35823 ft | 451 kts | 118° |
| 2026-05-07 08:40 | 51.01616 | 2.88858 | 35994 ft | 451 kts | 118° |
| 2026-05-07 08:41 | 51.00145 | 2.93262 | 36151 ft | 451 kts | 118° |
| 2026-05-07 08:41 | 50.98674 | 2.97670 | 36309 ft | 452 kts | 118° |
| 2026-05-07 08:41 | 50.97199 | 3.02080 | 36437 ft | 452 kts | 118° |
| 2026-05-07 08:41 | 50.95722 | 3.06487 | 36590 ft | 452 kts | 118° |
| 2026-05-07 08:42 | 50.94248 | 3.10875 | 36813 ft | 450 kts | 118° |
| 2026-05-07 08:42 | 50.92783 | 3.15236 | 37057 ft | 447 kts | 118° |
| 2026-05-07 08:42 | 50.89860 | 3.23911 | 37115 ft | 445 kts | 118° |
| 2026-05-07 08:43 | 50.86938 | 3.32554 | 37081 ft | 445 kts | 118° |
| 2026-05-07 08:43 | 50.84005 | 3.41185 | 37080 ft | 445 kts | 118° |
| 2026-05-07 08:44 | 50.81089 | 3.49755 | 37082 ft | 445 kts | 118° |
| 2026-05-07 08:44 | 50.78146 | 3.58370 | 37082 ft | 445 kts | 118° |
| 2026-05-07 08:45 | 50.75192 | 3.66982 | 37079 ft | 445 kts | 119° |
| 2026-05-07 08:45 | 50.72234 | 3.75577 | 37080 ft | 445 kts | 119° |
| 2026-05-07 08:46 | 50.69271 | 3.84154 | 37079 ft | 445 kts | 119° |
| 2026-05-07 08:46 | 50.66301 | 3.92724 | 37082 ft | 445 kts | 118° |
| 2026-05-07 08:47 | 50.63326 | 4.01284 | 37079 ft | 445 kts | 119° |
| 2026-05-07 08:47 | 50.60361 | 4.09783 | 37079 ft | 445 kts | 119° |
| 2026-05-07 08:48 | 50.57354 | 4.18316 | 37079 ft | 445 kts | 119° |
| 2026-05-07 08:48 | 50.54341 | 4.26841 | 37081 ft | 445 kts | 119° |
| 2026-05-07 08:49 | 50.51327 | 4.35347 | 37082 ft | 446 kts | 119° |
| 2026-05-07 08:49 | 50.48306 | 4.43847 | 37082 ft | 445 kts | 120° |
| 2026-05-07 08:50 | 50.45278 | 4.52329 | 37080 ft | 446 kts | 120° |
| 2026-05-07 08:50 | 50.42245 | 4.60802 | 37080 ft | 445 kts | 120° |
| 2026-05-07 08:51 | 50.39207 | 4.69265 | 37082 ft | 445 kts | 120° |
| 2026-05-07 08:51 | 50.36163 | 4.77708 | 37081 ft | 446 kts | 120° |
| 2026-05-07 08:52 | 50.33111 | 4.86149 | 37070 ft | 445 kts | 120° |
| 2026-05-07 08:52 | 50.30076 | 4.94518 | 37071 ft | 445 kts | 120° |
| 2026-05-07 08:53 | 50.27012 | 5.02938 | 37069 ft | 446 kts | 120° |
| 2026-05-07 08:53 | 50.23947 | 5.11341 | 37061 ft | 445 kts | 120° |
| 2026-05-07 08:54 | 50.21394 | 5.18316 | 37061 ft | 445 kts | 120° |
| 2026-05-07 08:54 | 50.18317 | 5.26695 | 37061 ft | 444 kts | 120° |
| 2026-05-07 08:55 | 50.15226 | 5.35078 | 37063 ft | 445 kts | 120° |
| 2026-05-07 08:55 | 50.12286 | 5.43561 | 37056 ft | 445 kts | 118° |
| 2026-05-07 08:56 | 50.09406 | 5.52103 | 37054 ft | 445 kts | 118° |
| 2026-05-07 08:56 | 50.06514 | 5.60626 | 37049 ft | 445 kts | 118° |
| 2026-05-07 08:57 | 50.03619 | 5.69143 | 37044 ft | 446 kts | 118° |
| 2026-05-07 08:57 | 50.00721 | 5.77646 | 37042 ft | 445 kts | 118° |
| 2026-05-07 08:58 | 49.97815 | 5.86128 | 37037 ft | 445 kts | 118° |
| 2026-05-07 08:58 | 49.94918 | 5.94558 | 37022 ft | 445 kts | 118° |
| 2026-05-07 08:59 | 49.92001 | 6.03020 | 37020 ft | 445 kts | 118° |
| 2026-05-07 08:59 | 49.89074 | 6.11479 | 37021 ft | 445 kts | 118° |
| 2026-05-07 09:00 | 49.86140 | 6.19936 | 37020 ft | 445 kts | 118° |
| 2026-05-07 09:00 | 49.83202 | 6.28377 | 37020 ft | 445 kts | 119° |
| 2026-05-07 09:01 | 49.80255 | 6.36808 | 37020 ft | 446 kts | 119° |
| 2026-05-07 09:01 | 49.77300 | 6.45239 | 37021 ft | 446 kts | 119° |
| 2026-05-07 09:02 | 49.74340 | 6.53655 | 37020 ft | 446 kts | 119° |
| 2026-05-07 09:02 | 49.71372 | 6.62067 | 37024 ft | 446 kts | 119° |
| 2026-05-07 09:03 | 49.68401 | 6.70467 | 37035 ft | 446 kts | 119° |
| 2026-05-07 09:03 | 49.65441 | 6.78797 | 37020 ft | 445 kts | 119° |
| 2026-05-07 09:04 | 49.62451 | 6.87188 | 37029 ft | 446 kts | 120° |
| 2026-05-07 09:04 | 49.59457 | 6.95567 | 37031 ft | 447 kts | 120° |
| 2026-05-07 09:05 | 49.56451 | 7.03949 | 37034 ft | 447 kts | 120° |
| 2026-05-07 09:05 | 49.53441 | 7.12321 | 37026 ft | 447 kts | 120° |
| 2026-05-07 09:06 | 49.50424 | 7.20683 | 37025 ft | 447 kts | 120° |
| 2026-05-07 09:06 | 49.47395 | 7.29035 | 37021 ft | 447 kts | 120° |
| 2026-05-07 09:07 | 49.44373 | 7.37382 | 37016 ft | 447 kts | 120° |
| 2026-05-07 09:07 | 49.41338 | 7.45714 | 37014 ft | 447 kts | 120° |
| 2026-05-07 09:08 | 49.38313 | 7.53988 | 37010 ft | 447 kts | 120° |
| 2026-05-07 09:08 | 49.35261 | 7.62316 | 37011 ft | 447 kts | 120° |
| 2026-05-07 09:09 | 49.32206 | 7.70621 | 37015 ft | 447 kts | 120° |
| 2026-05-07 09:09 | 49.29143 | 7.78921 | 37019 ft | 447 kts | 120° |
| 2026-05-07 09:10 | 49.26081 | 7.87199 | 37016 ft | 447 kts | 120° |
| 2026-05-07 09:10 | 49.22995 | 7.95458 | 37026 ft | 447 kts | 120° |
| 2026-05-07 09:11 | 49.19913 | 8.03724 | 37025 ft | 448 kts | 121° |
| 2026-05-07 09:11 | 49.16830 | 8.11984 | 37023 ft | 448 kts | 121° |
| 2026-05-07 09:12 | 49.13737 | 8.20233 | 37022 ft | 448 kts | 121° |
| 2026-05-07 09:12 | 49.10656 | 8.28424 | 37022 ft | 448 kts | 121° |
| 2026-05-07 09:13 | 49.07548 | 8.36663 | 37022 ft | 448 kts | 121° |
| 2026-05-07 09:13 | 49.04437 | 8.44883 | 37022 ft | 448 kts | 121° |
| 2026-05-07 09:14 | 49.01319 | 8.53091 | 37023 ft | 448 kts | 121° |
| 2026-05-07 09:14 | 48.97805 | 8.60889 | 37024 ft | 447 kts | 134° |
| 2026-05-07 09:15 | 48.93541 | 8.67745 | 37023 ft | 446 kts | 135° |
| 2026-05-07 09:15 | 48.89256 | 8.74565 | 37021 ft | 446 kts | 135° |
| 2026-05-07 09:16 | 48.84986 | 8.81397 | 37019 ft | 446 kts | 135° |
| 2026-05-07 09:16 | 48.80742 | 8.88173 | 37020 ft | 446 kts | 135° |
| 2026-05-07 09:17 | 48.76463 | 8.94991 | 37022 ft | 446 kts | 135° |
| 2026-05-07 09:17 | 48.72184 | 9.01788 | 37021 ft | 446 kts | 135° |
| 2026-05-07 09:18 | 48.67897 | 9.08577 | 37021 ft | 445 kts | 135° |
| 2026-05-07 09:18 | 48.63610 | 9.15353 | 37021 ft | 445 kts | 135° |
| 2026-05-07 09:19 | 48.59353 | 9.22067 | 37020 ft | 445 kts | 135° |
| 2026-05-07 09:19 | 48.55057 | 9.28821 | 37021 ft | 446 kts | 135° |
| 2026-05-07 09:20 | 48.50755 | 9.35568 | 37019 ft | 446 kts | 135° |
| 2026-05-07 09:20 | 48.46453 | 9.42293 | 37019 ft | 445 kts | 135° |
| 2026-05-07 09:21 | 48.42149 | 9.49006 | 37012 ft | 445 kts | 135° |
| 2026-05-07 09:21 | 48.37849 | 9.55695 | 37011 ft | 445 kts | 136° |
| 2026-05-07 09:22 | 48.33574 | 9.62455 | 37009 ft | 445 kts | 132° |
| 2026-05-07 09:22 | 48.29655 | 9.69700 | 37001 ft | 446 kts | 130° |
| 2026-05-07 09:23 | 48.25761 | 9.76957 | 37001 ft | 446 kts | 131° |
| 2026-05-07 09:23 | 48.21876 | 9.84164 | 36999 ft | 446 kts | 131° |
| 2026-05-07 09:24 | 48.17962 | 9.91399 | 36992 ft | 447 kts | 131° |
| 2026-05-07 09:24 | 48.14041 | 9.98625 | 36996 ft | 447 kts | 131° |
| 2026-05-07 09:25 | 48.10117 | 10.05835 | 37002 ft | 447 kts | 131° |
| 2026-05-07 09:25 | 48.06189 | 10.13041 | 37012 ft | 446 kts | 131° |
| 2026-05-07 09:26 | 48.02255 | 10.20236 | 37020 ft | 446 kts | 131° |
| 2026-05-07 09:26 | 47.98349 | 10.27366 | 37018 ft | 446 kts | 131° |
| 2026-05-07 09:27 | 47.94409 | 10.34525 | 37018 ft | 447 kts | 131° |
| 2026-05-07 09:28 | 47.88484 | 10.45268 | 37019 ft | 446 kts | 131° |
| 2026-05-07 09:28 | 47.84535 | 10.52402 | 37019 ft | 446 kts | 131° |
| 2026-05-07 09:29 | 47.80583 | 10.59527 | 37019 ft | 446 kts | 131° |
| 2026-05-07 09:29 | 47.76651 | 10.66597 | 37020 ft | 447 kts | 132° |
| 2026-05-07 09:30 | 47.72694 | 10.73691 | 37020 ft | 446 kts | 132° |
| 2026-05-07 09:30 | 47.68734 | 10.80770 | 37019 ft | 446 kts | 132° |
| 2026-05-07 09:31 | 47.64769 | 10.87842 | 37020 ft | 445 kts | 132° |
| 2026-05-07 09:31 | 47.60799 | 10.94900 | 37020 ft | 445 kts | 132° |
| 2026-05-07 09:32 | 47.56854 | 11.01901 | 37019 ft | 445 kts | 133° |
| 2026-05-07 09:32 | 47.52891 | 11.08918 | 37010 ft | 444 kts | 133° |
| 2026-05-07 09:33 | 47.48917 | 11.15930 | 37010 ft | 444 kts | 133° |
| 2026-05-07 09:33 | 47.44936 | 11.22930 | 37001 ft | 444 kts | 133° |
| 2026-05-07 09:34 | 47.40964 | 11.29909 | 37001 ft | 444 kts | 133° |
| 2026-05-07 09:34 | 47.36986 | 11.36876 | 37000 ft | 444 kts | 133° |
| 2026-05-07 09:35 | 47.32995 | 11.43850 | 37005 ft | 445 kts | 133° |
| 2026-05-07 09:35 | 47.29031 | 11.50756 | 37001 ft | 444 kts | 133° |
| 2026-05-07 09:36 | 47.25043 | 11.57689 | 37000 ft | 444 kts | 133° |
| 2026-05-07 09:36 | 47.21044 | 11.64619 | 37003 ft | 445 kts | 133° |
| 2026-05-07 09:37 | 47.17047 | 11.71533 | 36998 ft | 444 kts | 133° |
| 2026-05-07 09:37 | 47.13038 | 11.78457 | 36999 ft | 445 kts | 133° |
| 2026-05-07 09:38 | 47.09043 | 11.85372 | 37004 ft | 445 kts | 131° |
| 2026-05-07 09:38 | 47.05905 | 11.93266 | 37013 ft | 453 kts | 118° |
| 2026-05-07 09:39 | 47.03211 | 12.01498 | 37022 ft | 449 kts | 118° |
| 2026-05-07 09:39 | 47.00479 | 12.09711 | 37020 ft | 448 kts | 119° |
| 2026-05-07 09:40 | 46.97725 | 12.17900 | 37020 ft | 448 kts | 119° |
| 2026-05-07 09:40 | 46.94964 | 12.26078 | 37021 ft | 448 kts | 119° |
| 2026-05-07 09:41 | 46.92218 | 12.34192 | 37020 ft | 448 kts | 120° |
| 2026-05-07 09:41 | 46.89443 | 12.42365 | 37017 ft | 448 kts | 120° |
| 2026-05-07 09:42 | 46.86669 | 12.50520 | 37018 ft | 448 kts | 120° |
| 2026-05-07 09:42 | 46.83884 | 12.58678 | 37019 ft | 448 kts | 120° |
| 2026-05-07 09:43 | 46.81101 | 12.66798 | 37024 ft | 447 kts | 120° |
| 2026-05-07 09:43 | 46.78308 | 12.74924 | 37012 ft | 448 kts | 120° |
| 2026-05-07 09:44 | 46.75529 | 12.82992 | 37014 ft | 448 kts | 120° |
| 2026-05-07 09:44 | 46.72733 | 12.91085 | 37010 ft | 447 kts | 120° |
| 2026-05-07 09:45 | 46.69926 | 12.99182 | 37007 ft | 447 kts | 120° |
| 2026-05-07 09:45 | 46.67114 | 13.07261 | 37000 ft | 447 kts | 120° |
| 2026-05-07 09:46 | 46.64777 | 13.13963 | 36995 ft | 447 kts | 120° |
| 2026-05-07 09:46 | 46.61497 | 13.23334 | 36992 ft | 447 kts | 120° |
| 2026-05-07 09:47 | 46.58674 | 13.31379 | 36988 ft | 447 kts | 120° |
| 2026-05-07 09:47 | 46.56102 | 13.37910 | 36988 ft | 442 kts | 130° |
| 2026-05-07 09:48 | 46.51841 | 13.44162 | 36995 ft | 437 kts | 141° |
| 2026-05-07 09:48 | 46.47330 | 13.50081 | 36995 ft | 437 kts | 141° |
| 2026-05-07 09:49 | 46.42843 | 13.56029 | 36997 ft | 437 kts | 141° |
| 2026-05-07 09:49 | 46.38363 | 13.61990 | 36999 ft | 437 kts | 141° |
| 2026-05-07 09:50 | 46.33893 | 13.67931 | 37001 ft | 436 kts | 141° |
| 2026-05-07 09:50 | 46.29403 | 13.73886 | 36999 ft | 436 kts | 141° |
| 2026-05-07 09:51 | 46.24925 | 13.79808 | 36999 ft | 437 kts | 141° |
| 2026-05-07 09:51 | 46.20435 | 13.85729 | 37003 ft | 436 kts | 141° |
| 2026-05-07 09:52 | 46.15980 | 13.91594 | 36999 ft | 436 kts | 141° |
| 2026-05-07 09:52 | 46.11496 | 13.97482 | 37000 ft | 436 kts | 141° |
| 2026-05-07 09:53 | 46.07000 | 14.03372 | 37000 ft | 437 kts | 141° |
| 2026-05-07 09:53 | 46.02504 | 14.09243 | 37000 ft | 436 kts | 141° |
| 2026-05-07 09:54 | 45.98009 | 14.15101 | 37000 ft | 436 kts | 141° |
| 2026-05-07 09:54 | 45.93505 | 14.20954 | 36995 ft | 436 kts | 141° |
| 2026-05-07 09:55 | 45.89010 | 14.26788 | 36991 ft | 436 kts | 141° |
| 2026-05-07 09:55 | 45.84506 | 14.32622 | 36999 ft | 436 kts | 141° |
| 2026-05-07 09:56 | 45.80000 | 14.38446 | 37000 ft | 436 kts | 141° |
| 2026-05-07 09:56 | 45.75487 | 14.44266 | 37001 ft | 436 kts | 141° |
| 2026-05-07 09:57 | 45.70970 | 14.50080 | 37007 ft | 436 kts | 141° |
| 2026-05-07 09:57 | 45.66446 | 14.55885 | 37011 ft | 437 kts | 141° |
| 2026-05-07 09:58 | 45.61923 | 14.61680 | 37015 ft | 436 kts | 141° |
| 2026-05-07 09:58 | 45.57425 | 14.67431 | 37020 ft | 437 kts | 141° |
| 2026-05-07 09:59 | 45.52903 | 14.73205 | 37020 ft | 436 kts | 142° |
| 2026-05-07 09:59 | 45.48289 | 14.78821 | 37022 ft | 436 kts | 143° |
| 2026-05-07 10:00 | 45.43648 | 14.84401 | 37020 ft | 436 kts | 143° |
| 2026-05-07 10:00 | 45.39013 | 14.89978 | 37021 ft | 436 kts | 143° |
| 2026-05-07 10:01 | 45.34373 | 14.95541 | 37022 ft | 436 kts | 143° |
| 2026-05-07 10:01 | 45.29762 | 15.01058 | 37021 ft | 436 kts | 143° |
| 2026-05-07 10:02 | 45.25114 | 15.06609 | 37019 ft | 436 kts | 143° |
| 2026-05-07 10:02 | 45.20469 | 15.12142 | 37021 ft | 436 kts | 143° |
| 2026-05-07 10:03 | 45.15817 | 15.17669 | 37029 ft | 436 kts | 143° |
| 2026-05-07 10:03 | 45.11167 | 15.23188 | 37036 ft | 436 kts | 143° |
| 2026-05-07 10:04 | 45.06515 | 15.28689 | 37036 ft | 436 kts | 143° |
| 2026-05-07 10:04 | 45.01892 | 15.34148 | 37039 ft | 436 kts | 143° |
| 2026-05-07 10:05 | 44.97226 | 15.39645 | 37040 ft | 436 kts | 143° |
| 2026-05-07 10:05 | 44.92563 | 15.45138 | 37051 ft | 436 kts | 143° |
| 2026-05-07 10:06 | 44.87897 | 15.50614 | 37045 ft | 436 kts | 143° |
| 2026-05-07 10:06 | 44.83223 | 15.56081 | 37051 ft | 436 kts | 143° |
| 2026-05-07 10:07 | 44.78549 | 15.61541 | 37041 ft | 437 kts | 143° |
| 2026-05-07 10:07 | 44.73899 | 15.66963 | 37038 ft | 437 kts | 143° |
| 2026-05-07 10:08 | 44.69219 | 15.72413 | 37044 ft | 437 kts | 143° |
| 2026-05-07 10:08 | 44.64529 | 15.77851 | 37036 ft | 437 kts | 143° |
| 2026-05-07 10:09 | 44.59843 | 15.83282 | 37048 ft | 437 kts | 143° |
| 2026-05-07 10:09 | 44.55147 | 15.88707 | 37045 ft | 437 kts | 143° |
| 2026-05-07 10:10 | 44.50446 | 15.94131 | 37047 ft | 437 kts | 143° |
| 2026-05-07 10:10 | 44.45772 | 15.99509 | 37049 ft | 438 kts | 143° |
| 2026-05-07 10:11 | 44.41066 | 16.04914 | 37055 ft | 437 kts | 143° |
| 2026-05-07 10:11 | 44.36362 | 16.10305 | 37054 ft | 437 kts | 143° |
| 2026-05-07 10:12 | 44.31655 | 16.15688 | 37054 ft | 437 kts | 143° |
| 2026-05-07 10:12 | 44.26947 | 16.21059 | 37052 ft | 437 kts | 143° |
| 2026-05-07 10:13 | 44.22236 | 16.26425 | 37054 ft | 437 kts | 143° |
| 2026-05-07 10:13 | 44.17519 | 16.31786 | 37046 ft | 437 kts | 143° |
| 2026-05-07 10:14 | 44.12801 | 16.37128 | 37051 ft | 437 kts | 143° |
| 2026-05-07 10:14 | 44.08078 | 16.42477 | 37053 ft | 437 kts | 143° |
| 2026-05-07 10:15 | 44.03387 | 16.47764 | 37059 ft | 437 kts | 144° |
| 2026-05-07 10:15 | 43.98569 | 16.52902 | 37057 ft | 436 kts | 145° |
| 2026-05-07 10:16 | 43.93726 | 16.58006 | 37056 ft | 437 kts | 145° |
| 2026-05-07 10:16 | 43.88876 | 16.63113 | 37062 ft | 437 kts | 145° |
| 2026-05-07 10:17 | 43.84032 | 16.68203 | 37059 ft | 437 kts | 145° |
| 2026-05-07 10:17 | 43.79184 | 16.73280 | 37060 ft | 437 kts | 145° |
| 2026-05-07 10:18 | 43.74332 | 16.78359 | 37061 ft | 437 kts | 145° |
| 2026-05-07 10:18 | 43.69479 | 16.83427 | 37060 ft | 437 kts | 145° |
| 2026-05-07 10:19 | 43.64658 | 16.88447 | 37059 ft | 437 kts | 146° |
| 2026-05-07 10:19 | 43.59803 | 16.93494 | 37061 ft | 437 kts | 146° |
| 2026-05-07 10:20 | 43.54941 | 16.98537 | 37061 ft | 437 kts | 146° |
| 2026-05-07 10:20 | 43.50086 | 17.03566 | 37066 ft | 437 kts | 146° |
| 2026-05-07 10:21 | 43.45226 | 17.08588 | 37070 ft | 436 kts | 146° |
| 2026-05-07 10:21 | 43.40366 | 17.13600 | 37070 ft | 436 kts | 146° |
| 2026-05-07 10:22 | 43.35498 | 17.18606 | 37073 ft | 437 kts | 146° |
| 2026-05-07 10:22 | 43.30634 | 17.23605 | 37069 ft | 436 kts | 146° |
| 2026-05-07 10:23 | 43.25797 | 17.28561 | 37076 ft | 436 kts | 146° |
| 2026-05-07 10:23 | 43.20931 | 17.33539 | 37084 ft | 437 kts | 146° |
| 2026-05-07 10:24 | 43.16060 | 17.38509 | 37081 ft | 436 kts | 146° |
| 2026-05-07 10:24 | 43.11180 | 17.43477 | 37079 ft | 436 kts | 146° |
| 2026-05-07 10:25 | 43.06308 | 17.48429 | 37079 ft | 436 kts | 146° |
| 2026-05-07 10:25 | 43.01434 | 17.53374 | 37083 ft | 436 kts | 146° |
| 2026-05-07 10:26 | 42.96556 | 17.58313 | 37081 ft | 436 kts | 146° |
| 2026-05-07 10:26 | 42.91677 | 17.63244 | 37091 ft | 436 kts | 146° |
| 2026-05-07 10:27 | 42.86803 | 17.68160 | 37084 ft | 436 kts | 146° |
| 2026-05-07 10:27 | 42.81921 | 17.73072 | 37088 ft | 436 kts | 146° |
| 2026-05-07 10:28 | 42.77076 | 17.77939 | 37087 ft | 436 kts | 146° |
| 2026-05-07 10:28 | 42.72191 | 17.82839 | 37098 ft | 436 kts | 146° |
| 2026-05-07 10:29 | 42.67307 | 17.87725 | 37103 ft | 436 kts | 146° |
| 2026-05-07 10:29 | 42.62421 | 17.92600 | 37100 ft | 436 kts | 146° |
| 2026-05-07 10:30 | 42.55086 | 17.99904 | 37115 ft | 436 kts | 146° |
| 2026-05-07 10:30 | 42.50233 | 18.04727 | 37110 ft | 435 kts | 146° |
| 2026-05-07 10:31 | 42.45351 | 18.09569 | 37109 ft | 436 kts | 146° |
| 2026-05-07 10:31 | 42.40463 | 18.14406 | 37110 ft | 435 kts | 146° |
| 2026-05-07 10:32 | 42.35576 | 18.19232 | 37115 ft | 434 kts | 146° |
| 2026-05-07 10:32 | 42.30687 | 18.24051 | 37112 ft | 435 kts | 146° |
| 2026-05-07 10:33 | 42.25784 | 18.28872 | 37110 ft | 435 kts | 146° |
| 2026-05-07 10:33 | 42.20888 | 18.33676 | 37109 ft | 435 kts | 146° |
| 2026-05-07 10:34 | 42.16018 | 18.38444 | 37109 ft | 435 kts | 146° |
| 2026-05-07 10:34 | 42.11121 | 18.43234 | 37109 ft | 435 kts | 146° |
| 2026-05-07 10:35 | 42.06218 | 18.48012 | 37110 ft | 435 kts | 146° |
| 2026-05-07 10:35 | 42.01320 | 18.52800 | 37113 ft | 436 kts | 145° |
| 2026-05-07 10:36 | 41.96524 | 18.57780 | 37117 ft | 435 kts | 144° |
| 2026-05-07 10:36 | 41.91738 | 18.62757 | 37105 ft | 434 kts | 144° |
| 2026-05-07 10:37 | 41.86993 | 18.67679 | 37111 ft | 434 kts | 144° |
| 2026-05-07 10:37 | 41.82220 | 18.72622 | 37107 ft | 433 kts | 144° |
| 2026-05-07 10:38 | 41.77453 | 18.77550 | 37116 ft | 432 kts | 144° |
| 2026-05-07 10:38 | 41.72690 | 18.82468 | 37119 ft | 432 kts | 144° |
| 2026-05-07 10:39 | 41.67920 | 18.87377 | 37121 ft | 432 kts | 145° |
| 2026-05-07 10:39 | 41.63180 | 18.92245 | 37121 ft | 432 kts | 145° |
| 2026-05-07 10:40 | 41.58413 | 18.97135 | 37120 ft | 432 kts | 145° |
| 2026-05-07 10:40 | 41.53650 | 19.02013 | 37121 ft | 432 kts | 145° |
| 2026-05-07 10:41 | 41.49678 | 19.06073 | 37119 ft | 432 kts | 145° |
| 2026-05-07 10:41 | 41.44696 | 19.10494 | 37105 ft | 429 kts | 157° |
| 2026-05-07 10:42 | 41.39149 | 19.13343 | 37112 ft | 427 kts | 163° |
| 2026-05-07 10:42 | 41.33551 | 19.16016 | 37112 ft | 428 kts | 162° |
| 2026-05-07 10:43 | 41.27950 | 19.18736 | 37112 ft | 428 kts | 162° |
| 2026-05-07 10:43 | 41.22356 | 19.21460 | 37118 ft | 428 kts | 162° |
| 2026-05-07 10:44 | 41.16789 | 19.24164 | 37117 ft | 429 kts | 162° |
| 2026-05-07 10:44 | 41.11186 | 19.26885 | 37121 ft | 429 kts | 162° |
| 2026-05-07 10:45 | 41.08395 | 19.28237 | 36922 ft | 425 kts | 162° |
| 2026-05-07 10:45 | 41.05603 | 19.29588 | 36515 ft | 427 kts | 162° |
| 2026-05-07 10:45 | 41.02810 | 19.30939 | 35969 ft | 426 kts | 162° |
| 2026-05-07 10:45 | 41.00021 | 19.32285 | 35384 ft | 427 kts | 162° |
| 2026-05-07 10:46 | 40.97225 | 19.33633 | 34782 ft | 434 kts | 162° |
| 2026-05-07 10:46 | 40.94376 | 19.35005 | 34116 ft | 435 kts | 162° |
| 2026-05-07 10:46 | 40.91522 | 19.36381 | 33433 ft | 436 kts | 162° |
| 2026-05-07 10:46 | 40.88703 | 19.37739 | 32769 ft | 437 kts | 162° |
| 2026-05-07 10:47 | 40.85852 | 19.39113 | 32132 ft | 436 kts | 162° |
| 2026-05-07 10:47 | 40.83003 | 19.40481 | 31521 ft | 435 kts | 162° |
| 2026-05-07 10:47 | 40.80162 | 19.41843 | 30948 ft | 433 kts | 162° |
| 2026-05-07 10:47 | 40.77336 | 19.43198 | 30392 ft | 430 kts | 162° |
| 2026-05-07 10:48 | 40.74530 | 19.44544 | 29835 ft | 428 kts | 162° |
| 2026-05-07 10:48 | 40.71741 | 19.45886 | 29272 ft | 426 kts | 162° |
| 2026-05-07 10:48 | 40.68965 | 19.47219 | 28714 ft | 423 kts | 162° |
| 2026-05-07 10:48 | 40.66203 | 19.48541 | 28165 ft | 420 kts | 162° |
| 2026-05-07 10:49 | 40.63464 | 19.49848 | 27620 ft | 418 kts | 162° |
| 2026-05-07 10:49 | 40.60734 | 19.51152 | 27056 ft | 415 kts | 162° |
| 2026-05-07 10:49 | 40.58026 | 19.52446 | 26496 ft | 413 kts | 162° |
| 2026-05-07 10:49 | 40.55330 | 19.53731 | 25938 ft | 411 kts | 162° |
| 2026-05-07 10:50 | 40.52681 | 19.54986 | 25412 ft | 408 kts | 162° |
| 2026-05-07 10:50 | 40.50019 | 19.56242 | 24876 ft | 405 kts | 162° |
| 2026-05-07 10:50 | 40.47361 | 19.57496 | 24308 ft | 404 kts | 162° |
| 2026-05-07 10:50 | 40.44723 | 19.58741 | 23774 ft | 401 kts | 162° |
| 2026-05-07 10:51 | 40.42103 | 19.59980 | 23243 ft | 400 kts | 162° |
| 2026-05-07 10:51 | 40.39492 | 19.61216 | 22715 ft | 398 kts | 162° |
| 2026-05-07 10:51 | 40.36895 | 19.62443 | 22176 ft | 396 kts | 162° |
| 2026-05-07 10:51 | 40.34306 | 19.63667 | 21637 ft | 395 kts | 162° |
| 2026-05-07 10:52 | 40.31724 | 19.64885 | 21095 ft | 394 kts | 162° |
| 2026-05-07 10:52 | 40.29155 | 19.66096 | 20579 ft | 391 kts | 162° |
| 2026-05-07 10:52 | 40.26602 | 19.67299 | 20065 ft | 388 kts | 162° |
| 2026-05-07 10:52 | 40.24068 | 19.68492 | 19578 ft | 386 kts | 162° |
| 2026-05-07 10:53 | 40.21586 | 19.69660 | 19108 ft | 383 kts | 162° |
| 2026-05-07 10:53 | 40.19089 | 19.70836 | 18656 ft | 380 kts | 162° |
| 2026-05-07 10:53 | 40.16602 | 19.72005 | 18223 ft | 379 kts | 162° |
| 2026-05-07 10:53 | 40.14120 | 19.73169 | 17789 ft | 378 kts | 162° |
| 2026-05-07 10:54 | 40.11642 | 19.74329 | 17320 ft | 378 kts | 162° |
| 2026-05-07 10:54 | 40.09168 | 19.75489 | 16863 ft | 378 kts | 162° |
| 2026-05-07 10:54 | 40.06699 | 19.76647 | 16420 ft | 377 kts | 162° |
| 2026-05-07 10:54 | 40.04234 | 19.77800 | 15972 ft | 375 kts | 162° |
| 2026-05-07 10:55 | 40.01803 | 19.78937 | 15535 ft | 367 kts | 162° |
| 2026-05-07 10:55 | 39.99417 | 19.80052 | 15116 ft | 360 kts | 162° |
| 2026-05-07 10:55 | 39.97082 | 19.81139 | 14702 ft | 354 kts | 162° |
| 2026-05-07 10:55 | 39.94784 | 19.82213 | 14286 ft | 348 kts | 162° |
| 2026-05-07 10:56 | 39.92521 | 19.83268 | 13875 ft | 345 kts | 162° |
| 2026-05-07 10:56 | 39.90264 | 19.84319 | 13470 ft | 344 kts | 162° |
| 2026-05-07 10:56 | 39.88020 | 19.85399 | 13086 ft | 343 kts | 161° |
| 2026-05-07 10:56 | 39.85828 | 19.86512 | 12720 ft | 342 kts | 161° |
| 2026-05-07 10:57 | 39.83615 | 19.87641 | 12338 ft | 341 kts | 161° |
| 2026-05-07 10:57 | 39.81407 | 19.88759 | 11936 ft | 340 kts | 161° |
| 2026-05-07 10:57 | 39.79198 | 19.89872 | 11526 ft | 340 kts | 161° |
| 2026-05-07 10:57 | 39.76994 | 19.90980 | 11139 ft | 339 kts | 161° |
| 2026-05-07 10:58 | 39.74817 | 19.92076 | 10835 ft | 330 kts | 161° |
| 2026-05-07 10:58 | 39.72691 | 19.93034 | 10637 ft | 317 kts | 169° |
| 2026-05-07 10:58 | 39.70556 | 19.93077 | 10464 ft | 301 kts | 194° |
| 2026-05-07 10:58 | 39.68708 | 19.92006 | 10298 ft | 286 kts | 217° |
| 2026-05-07 10:59 | 39.67383 | 19.90136 | 10032 ft | 282 kts | 237° |
| 2026-05-07 10:59 | 39.66364 | 19.87958 | 9693 ft | 282 kts | 238° |
| 2026-05-07 10:59 | 39.65263 | 19.85846 | 9346 ft | 283 kts | 233° |
| 2026-05-07 10:59 | 39.64024 | 19.83864 | 8985 ft | 282 kts | 228° |
| 2026-05-07 11:00 | 39.62666 | 19.82031 | 8622 ft | 281 kts | 224° |
| 2026-05-07 11:00 | 39.61200 | 19.80344 | 8278 ft | 283 kts | 219° |
| 2026-05-07 11:00 | 39.59630 | 19.78799 | 7944 ft | 283 kts | 215° |
| 2026-05-07 11:00 | 39.57974 | 19.77415 | 7636 ft | 283 kts | 211° |
| 2026-05-07 11:01 | 39.56245 | 19.76199 | 7324 ft | 282 kts | 206° |
| 2026-05-07 11:01 | 39.54455 | 19.75155 | 7001 ft | 282 kts | 202° |
| 2026-05-07 11:01 | 39.52639 | 19.74299 | 6686 ft | 280 kts | 198° |
| 2026-05-07 11:01 | 39.50755 | 19.73606 | 6362 ft | 276 kts | 194° |
| 2026-05-07 11:02 | 39.48902 | 19.73109 | 6060 ft | 275 kts | 189° |
| 2026-05-07 11:02 | 39.47004 | 19.72784 | 5740 ft | 276 kts | 185° |
| 2026-05-07 11:02 | 39.45121 | 19.72637 | 5442 ft | 275 kts | 181° |
| 2026-05-07 11:02 | 39.43213 | 19.72664 | 5146 ft | 274 kts | 176° |
| 2026-05-07 11:03 | 39.41353 | 19.73131 | 4861 ft | 271 kts | 156° |
| 2026-05-07 11:03 | 39.39861 | 19.74582 | 4558 ft | 269 kts | 129° |
| 2026-05-07 11:03 | 39.39025 | 19.76719 | 4247 ft | 268 kts | 103° |
| 2026-05-07 11:03 | 39.38974 | 19.79101 | 3940 ft | 267 kts | 78° |
| 2026-05-07 11:04 | 39.39584 | 19.81350 | 3661 ft | 264 kts | 70° |
| 2026-05-07 11:04 | 39.39886 | 19.83628 | 3479 ft | 253 kts | 88° |
| 2026-05-07 11:04 | 39.39922 | 19.85847 | 3430 ft | 239 kts | 89° |
| 2026-05-07 11:04 | 39.40021 | 19.87898 | 3479 ft | 218 kts | 79° |
| 2026-05-07 11:05 | 39.40391 | 19.89739 | 3416 ft | 208 kts | 73° |
| 2026-05-07 11:05 | 39.40816 | 19.91531 | 3479 ft | 209 kts | 73° |
| 2026-05-07 11:05 | 39.41229 | 19.93305 | 3449 ft | 208 kts | 73° |
| 2026-05-07 11:05 | 39.41638 | 19.95080 | 3514 ft | 193 kts | 73° |
| 2026-05-07 11:06 | 39.42081 | 19.96598 | 3504 ft | 174 kts | 59° |
| 2026-05-07 11:06 | 39.42999 | 19.97441 | 3297 ft | 163 kts | 9° |
| 2026-05-07 11:06 | 39.44106 | 19.97260 | 3090 ft | 162 kts | 340° |
| 2026-05-07 11:06 | 39.45160 | 19.96768 | 2824 ft | 161 kts | 342° |
| 2026-05-07 11:07 | 39.46227 | 19.96344 | 2556 ft | 160 kts | 344° |
| 2026-05-07 11:07 | 39.47298 | 19.95942 | 2305 ft | 160 kts | 344° |
| 2026-05-07 11:07 | 39.48366 | 19.95537 | 2042 ft | 159 kts | 344° |
| 2026-05-07 11:07 | 39.49430 | 19.95138 | 1790 ft | 159 kts | 344° |
| 2026-05-07 11:08 | 39.50497 | 19.94738 | 1689 ft | 160 kts | 344° |
| 2026-05-07 11:08 | 39.51547 | 19.94341 | 1635 ft | 153 kts | 343° |
| 2026-05-07 11:08 | 39.52563 | 19.93961 | 1419 ft | 152 kts | 344° |
| 2026-05-07 11:08 | 39.53575 | 19.93581 | 1187 ft | 151 kts | 345° |
| 2026-05-07 11:09 | 39.54586 | 19.93214 | 984 ft | 151 kts | 345° |
| 2026-05-07 11:09 | 39.55586 | 19.92806 | 771 ft | 150 kts | 338° |
| 2026-05-07 11:09 | 39.56529 | 19.92266 | 569 ft | 150 kts | 339° |
| 2026-05-07 11:09 | 39.57530 | 19.91907 | 414 ft | 149 kts | 349° |
| 2026-05-07 11:10 | 39.58548 | 19.91639 | 236 ft | 149 kts | 349° |
| 2026-05-07 11:10 | 39.59565 | 19.91380 | 35 ft | 148 kts | 349° |
| 2026-05-07 11:10 | 39.60555 | 19.91128 | 69 ft | 159 kts | 349° |
| 2026-05-07 11:10 | 39.61699 | 19.90879 | 887 ft | 173 kts | 1° |
| 2026-05-07 11:11 | 39.62865 | 19.91363 | 1732 ft | 184 kts | 36° |
| 2026-05-07 11:11 | 39.63664 | 19.92711 | 2407 ft | 200 kts | 68° |
| 2026-05-07 11:11 | 39.63928 | 19.94514 | 2907 ft | 205 kts | 91° |
| 2026-05-07 11:11 | 39.63522 | 19.96280 | 3569 ft | 208 kts | 121° |
| 2026-05-07 11:12 | 39.62637 | 19.97780 | 3896 ft | 214 kts | 129° |
| 2026-05-07 11:12 | 39.61648 | 19.99381 | 3979 ft | 232 kts | 128° |
| 2026-05-07 11:12 | 39.60663 | 20.01005 | 3995 ft | 232 kts | 128° |
| 2026-05-07 11:12 | 39.59669 | 20.02657 | 4007 ft | 232 kts | 128° |
| 2026-05-07 11:13 | 39.58677 | 20.04307 | 4000 ft | 232 kts | 128° |
| 2026-05-07 11:13 | 39.57686 | 20.05960 | 3999 ft | 232 kts | 128° |
| 2026-05-07 11:13 | 39.56693 | 20.07620 | 3994 ft | 232 kts | 128° |
| 2026-05-07 11:13 | 39.55702 | 20.09272 | 3999 ft | 232 kts | 128° |
| 2026-05-07 11:14 | 39.54606 | 20.10799 | 3990 ft | 232 kts | 143° |
| 2026-05-07 11:14 | 39.53161 | 20.11696 | 3998 ft | 232 kts | 163° |
| 2026-05-07 11:14 | 39.51607 | 20.12254 | 4001 ft | 232 kts | 165° |
| 2026-05-07 11:14 | 39.50048 | 20.12795 | 4005 ft | 232 kts | 165° |
| 2026-05-07 11:15 | 39.48493 | 20.13350 | 4016 ft | 232 kts | 164° |
| 2026-05-07 11:15 | 39.46919 | 20.13718 | 3970 ft | 227 kts | 182° |
| 2026-05-07 11:15 | 39.45407 | 20.13209 | 3612 ft | 227 kts | 209° |
| 2026-05-07 11:15 | 39.44233 | 20.11865 | 3242 ft | 227 kts | 236° |
| 2026-05-07 11:16 | 39.43632 | 20.09994 | 2940 ft | 228 kts | 259° |
| 2026-05-07 11:16 | 39.43408 | 20.07970 | 2887 ft | 228 kts | 263° |
| 2026-05-07 11:16 | 39.43206 | 20.05940 | 2886 ft | 228 kts | 262° |
| 2026-05-07 11:16 | 39.42987 | 20.03938 | 2894 ft | 228 kts | 262° |
| 2026-05-07 11:17 | 39.42756 | 20.01938 | 2889 ft | 218 kts | 261° |
| 2026-05-07 11:17 | 39.42547 | 20.00066 | 2878 ft | 207 kts | 265° |
| 2026-05-07 11:17 | 39.42660 | 19.98350 | 2885 ft | 181 kts | 295° |
| 2026-05-07 11:17 | 39.43513 | 19.97294 | 2886 ft | 171 kts | 334° |
| 2026-05-07 11:18 | 39.44645 | 19.96854 | 2885 ft | 170 kts | 347° |
| 2026-05-07 11:18 | 39.45790 | 19.96496 | 2682 ft | 168 kts | 345° |
| 2026-05-07 11:18 | 39.46918 | 19.96090 | 2403 ft | 168 kts | 344° |
| 2026-05-07 11:18 | 39.48040 | 19.95672 | 2128 ft | 168 kts | 344° |
| 2026-05-07 11:19 | 39.49159 | 19.95248 | 1853 ft | 168 kts | 344° |
| 2026-05-07 11:19 | 39.50258 | 19.94834 | 1697 ft | 156 kts | 344° |
| 2026-05-07 11:19 | 39.51278 | 19.94449 | 1673 ft | 152 kts | 344° |
| 2026-05-07 11:19 | 39.52289 | 19.94070 | 1456 ft | 151 kts | 344° |
| 2026-05-07 11:20 | 39.53287 | 19.93697 | 1225 ft | 151 kts | 344° |
| 2026-05-07 11:20 | 39.54306 | 19.93312 | 1000 ft | 150 kts | 344° |
| 2026-05-07 11:20 | 39.55296 | 19.92933 | 809 ft | 150 kts | 341° |
| 2026-05-07 11:20 | 39.56251 | 19.92395 | 632 ft | 150 kts | 335° |
| 2026-05-07 11:21 | 39.57231 | 19.91961 | 431 ft | 149 kts | 348° |
| 2026-05-07 11:21 | 39.58249 | 19.91711 | 259 ft | 149 kts | 349° |
| 2026-05-07 11:21 | 39.59262 | 19.91452 | 60 ft | 148 kts | 350° |
| 2026-05-07 11:21 | 39.60194 | 19.91213 | 27 ft | 107 kts | 349° |
| 2026-05-07 11:22 | 39.60637 | 19.91099 | 23 ft | 38 kts | 349° |
| 2026-05-07 11:22 | 39.60900 | 19.91031 | 25 ft | 35 kts | 349° |
| 2026-05-07 11:22 | 39.61022 | 19.91027 | 26 ft | 12 kts | 50° |
| 2026-05-07 11:22 | 39.61062 | 19.91099 | 26 ft | 6 kts | 71° |
| 2026-05-07 11:23 | 39.61022 | 19.91132 | 24 ft | 9 kts | 169° |
| 2026-05-07 11:23 | 39.60966 | 19.91147 | 26 ft | 8 kts | 167° |
| 2026-05-07 11:23 | 39.60901 | 19.91165 | 25 ft | 11 kts | 167° |
| 2026-05-07 11:23 | 39.60833 | 19.91184 | 24 ft | 6 kts | 169° |
| 2026-05-07 11:24 | 39.60782 | 19.91196 | 24 ft | 9 kts | 169° |
| 2026-05-07 11:24 | 39.60729 | 19.91217 | 24 ft | 7 kts | 125° |
| 2026-05-07 11:24 | 39.60734 | 19.91285 | 24 ft | 8 kts | 78° |
| 2026-05-07 11:24 | 39.60741 | 19.91329 | 24 ft | 3 kts | 79° |
| 2026-05-07 11:25 | 39.60742 | 19.91339 | 24 ft | 0 kts | 79° |